createdAt,value
2022-09-10T00:04:23.543Z,2.2
2022-09-10T00:06:30.132Z,2.5
2022-09-10T00:08:23.373Z,2.4
2022-09-10T00:12:27.584Z,2.6
2022-09-10T00:16:25.244Z,2.4
2022-09-10T00:18:26.563Z,2.1
2022-09-10T00:20:31.721Z,2.3
2022-09-10T00:22:26.616Z,2.4
2022-09-10T00:24:27.468Z,2.6
2022-09-10T00:26:27.273Z,2.8
2022-09-10T00:28:25.236Z,2.3
2022-09-10T00:30:25.021Z,2.4
2022-09-10T00:34:25.931Z,2.7
2022-09-10T00:36:30.440Z,2.1
2022-09-10T00:38:26.048Z,1.8
2022-09-10T00:40:25.576Z,2.4
2022-09-10T00:42:28.197Z,2.6
2022-09-10T00:44:24.408Z,2.5
2022-09-10T00:46:25.365Z,2.1
2022-09-10T00:48:25.190Z,2.4
2022-09-10T00:50:27.466Z,2
2022-09-10T00:52:29.079Z,2.2
2022-09-10T00:54:23.887Z,2
2022-09-10T00:56:27.320Z,2.1
2022-09-10T00:58:23.120Z,2
2022-09-10T01:00:28.376Z,2.3
2022-09-10T01:02:25.522Z,2.1
2022-09-10T01:04:23.416Z,1.9
2022-09-10T01:06:24.779Z,2
2022-09-10T01:10:29.218Z,2.7
2022-09-10T01:12:23.813Z,2
2022-09-10T01:16:24.407Z,2.2
2022-09-10T01:18:22.616Z,2.5
2022-09-10T01:20:25.800Z,2.2
2022-09-10T01:22:25.731Z,2.1
2022-09-10T01:24:23.776Z,2.5
2022-09-10T01:26:29.850Z,1.8
2022-09-10T01:28:29.118Z,2.1
2022-09-10T01:32:31.194Z,1.8
2022-09-10T01:34:27.148Z,2.1
2022-09-10T01:36:23.856Z,1.9
2022-09-10T01:38:19.951Z,2.1
2022-09-10T01:40:21.121Z,2.3
2022-09-10T01:42:24.892Z,2.2
2022-09-10T01:44:23.142Z,2.4
2022-09-10T01:46:29.009Z,2.3
2022-09-10T01:48:28.743Z,2.2
2022-09-10T01:50:22.217Z,2.3
2022-09-10T01:52:24.845Z,2.1
2022-09-10T01:54:24.865Z,2.5
2022-09-10T01:56:30.136Z,2.3
2022-09-10T01:58:24.424Z,2.1
2022-09-10T02:00:28.907Z,2.6
2022-09-10T02:02:26.217Z,2.1
2022-09-10T02:04:22.495Z,2.2
2022-09-10T02:06:23.665Z,2.3
2022-09-10T02:08:22.338Z,2.5
2022-09-10T02:10:24.822Z,2.3
2022-09-10T02:16:28.291Z,2.6
2022-09-10T02:18:28.300Z,2.1
2022-09-10T02:20:23.335Z,2
2022-09-10T02:22:23.164Z,2.1
2022-09-10T02:24:26.619Z,2
2022-09-10T02:26:27.753Z,2.5
2022-09-10T02:28:27.774Z,2.2
2022-09-10T02:30:22.310Z,2.3
2022-09-10T02:32:29.838Z,2.2
2022-09-10T02:34:25.013Z,2.1
2022-09-10T02:36:20.019Z,2.3
2022-09-10T02:38:24.950Z,2
2022-09-10T02:40:20.737Z,2.1
2022-09-10T02:42:27.440Z,2
2022-09-10T02:44:20.896Z,1.8
2022-09-10T02:46:25.010Z,2.1
2022-09-10T02:48:27.198Z,2.3
2022-09-10T02:50:26.547Z,2.1
2022-09-10T02:52:25.494Z,1.9
2022-09-10T02:54:22.913Z,2.5
2022-09-10T02:56:27.220Z,2.1
2022-09-10T02:58:27.732Z,2.3
2022-09-10T03:00:29.359Z,2.1
2022-09-10T03:04:26.604Z,2
2022-09-10T03:08:20.870Z,2.3
2022-09-10T03:10:25.465Z,2.4
2022-09-10T03:12:28.105Z,2
2022-09-10T03:14:23.915Z,2.6
2022-09-10T03:16:29.210Z,2.8
2022-09-10T03:18:22.212Z,2.5
2022-09-10T03:20:24.357Z,2
2022-09-10T03:24:22.836Z,2.6
2022-09-10T03:26:25.161Z,1.9
2022-09-10T03:28:24.576Z,2.2
2022-09-10T03:30:29.922Z,2.4
2022-09-10T03:32:25.477Z,1.9
2022-09-10T03:34:23.323Z,1.7
2022-09-10T03:36:32.520Z,2.3
2022-09-10T03:38:26.565Z,2.4
2022-09-10T03:42:24.069Z,2.1
2022-09-10T03:44:25.110Z,2.2
2022-09-10T03:46:24.460Z,2.5
2022-09-10T03:48:23.874Z,2
2022-09-10T03:50:22.536Z,2.2
2022-09-10T03:52:26.710Z,2.4
2022-09-10T03:54:25.210Z,2.6
2022-09-10T03:56:22.121Z,2.1
2022-09-10T04:00:25.039Z,2.4
2022-09-10T04:02:27.838Z,2.1
2022-09-10T04:04:23.771Z,1.9
2022-09-10T04:06:21.410Z,2.4
2022-09-10T04:08:23.127Z,2.1
2022-09-10T04:12:30.490Z,2.4
2022-09-10T04:14:23.394Z,2.3
2022-09-10T04:16:28.964Z,2.2
2022-09-10T04:18:26.321Z,2
2022-09-10T04:20:28.587Z,2.2
2022-09-10T04:22:25.944Z,2.3
2022-09-10T04:24:22.057Z,2.6
2022-09-10T04:26:25.770Z,2.2
2022-09-10T04:28:23.416Z,1.9
2022-09-10T04:30:24.743Z,2.3
2022-09-10T04:32:24.674Z,2.4
2022-09-10T04:34:23.200Z,2
2022-09-10T04:36:31.078Z,2.6
2022-09-10T04:38:25.368Z,2.3
2022-09-10T04:40:26.284Z,2.6
2022-09-10T04:42:25.230Z,2.9
2022-09-10T04:44:23.182Z,2.2
2022-09-10T04:46:25.005Z,2.7
2022-09-10T04:48:20.813Z,2.1
2022-09-10T04:50:27.142Z,2.8
2022-09-10T04:52:21.686Z,2.6
2022-09-10T04:54:24.285Z,2.5
2022-09-10T04:58:25.828Z,2.6
2022-09-10T05:00:30.343Z,2.5
2022-09-10T05:04:23.617Z,2.4
2022-09-10T05:06:25.253Z,2.7
2022-09-10T05:08:23.700Z,2.5
2022-09-10T05:10:27.774Z,2.7
2022-09-10T05:12:23.817Z,2.4
2022-09-10T05:14:23.716Z,2.8
2022-09-10T05:16:28.387Z,2.4
2022-09-10T05:18:24.720Z,3.3
2022-09-10T05:20:24.491Z,2.1
2022-09-10T05:22:34.923Z,2.7
2022-09-10T05:24:22.934Z,2.6
2022-09-10T05:26:28.183Z,2.4
2022-09-10T05:28:23.404Z,2.6
2022-09-10T05:34:26.313Z,2.7
2022-09-10T05:36:27.162Z,3
2022-09-10T05:38:27.190Z,2.3
2022-09-10T05:40:21.199Z,2.8
2022-09-10T05:42:29.115Z,2.6
2022-09-10T05:44:24.170Z,2.1
2022-09-10T05:46:20.080Z,2.4
2022-09-10T05:48:26.466Z,2.3
2022-09-10T05:50:26.450Z,2.4
2022-09-10T05:52:27.894Z,2.5
2022-09-10T05:54:23.415Z,2.3
2022-09-10T05:56:25.361Z,2.7
2022-09-10T05:58:20.240Z,2.3
2022-09-10T06:00:25.526Z,2.6
2022-09-10T06:02:29.595Z,2.5
2022-09-10T06:04:23.343Z,2.8
2022-09-10T06:06:27.427Z,2.3
2022-09-10T06:08:26.272Z,2.4
2022-09-10T06:10:28.248Z,2.8
2022-09-10T06:12:24.135Z,2.6
2022-09-10T06:14:26.127Z,2.2
2022-09-10T06:16:24.777Z,2.4
2022-09-10T06:18:25.364Z,1.9
2022-09-10T06:20:25.275Z,2.4
2022-09-10T06:22:22.945Z,2.2
2022-09-10T06:24:24.038Z,2
2022-09-10T06:26:26.977Z,2.3
2022-09-10T06:28:24.309Z,2.2
2022-09-10T06:30:22.295Z,2
2022-09-10T06:32:27.939Z,2.1
2022-09-10T06:34:25.551Z,2
2022-09-10T06:36:24.980Z,2.1
2022-09-10T06:40:25.442Z,1.5
2022-09-10T06:42:22.616Z,1.7
2022-09-10T06:47:01.652Z,1.8
2022-09-10T06:49:31.270Z,2
2022-09-10T06:51:18.971Z,1.9
2022-09-10T06:56:26.778Z,1.8
2022-09-10T06:58:23.977Z,2.3
2022-09-10T07:00:24.429Z,2
2022-09-10T07:02:31.610Z,1.7
2022-09-10T07:04:22.308Z,1.8
2022-09-10T07:06:20.914Z,1.9
2022-09-10T07:08:23.848Z,2.1
2022-09-10T07:10:24.934Z,1.9
2022-09-10T07:12:30.419Z,1.6
2022-09-10T07:14:25.758Z,1.8
2022-09-10T07:18:24.273Z,1.7
2022-09-10T07:22:19.686Z,1.8
2022-09-10T07:24:24.933Z,1.9
2022-09-10T07:28:20.455Z,2.1
2022-09-10T07:30:26.700Z,1.7
2022-09-10T07:32:26.539Z,1.5
2022-09-10T07:34:23.231Z,1.8
2022-09-10T07:36:25.213Z,2.1
2022-09-10T07:38:25.907Z,2.3
2022-09-10T07:40:30.022Z,2.1
2022-09-10T07:42:27.716Z,2.2
2022-09-10T07:46:30.479Z,2.3
2022-09-10T07:48:23.875Z,2.5
2022-09-10T07:50:27.174Z,2.3
2022-09-10T07:52:28.393Z,2.6
2022-09-10T07:54:24.259Z,2.5
2022-09-10T07:56:21.637Z,2.3
2022-09-10T07:58:20.040Z,2.5
2022-09-10T08:00:23.500Z,3
2022-09-10T08:02:27.584Z,2.9
2022-09-10T08:06:25.920Z,2.7
2022-09-10T08:08:26.069Z,3
2022-09-10T08:10:25.445Z,2.8
2022-09-10T08:12:26.889Z,2.6
2022-09-10T08:14:25.705Z,2.4
2022-09-10T08:16:23.382Z,2.5
2022-09-10T08:20:25.744Z,2.9
2022-09-10T08:22:31.109Z,2.6
2022-09-10T08:24:23.975Z,3.1
2022-09-10T08:26:28.013Z,3.5
2022-09-10T08:28:25.484Z,3.2
2022-09-10T08:30:21.281Z,2.7
2022-09-10T08:32:24.603Z,2.9
2022-09-10T08:34:26.728Z,3.9
2022-09-10T08:36:28.629Z,3.7
2022-09-10T08:38:26.219Z,3.4
2022-09-10T08:40:25.629Z,3.1
2022-09-10T08:42:28.115Z,3.2
2022-09-10T08:44:23.272Z,3.6
2022-09-10T08:46:24.877Z,3.5
2022-09-10T08:48:23.638Z,3.9
2022-09-10T08:50:25.166Z,3.1
2022-09-10T08:52:25.033Z,2.7
2022-09-10T08:54:24.001Z,3.3
2022-09-10T08:56:25.058Z,2.8
2022-09-10T08:58:23.794Z,3.5
2022-09-10T09:00:24.349Z,2.9
2022-09-10T09:02:52.379Z,3.2
2022-09-10T09:04:34.589Z,3.4
2022-09-10T09:06:24.869Z,3.1
2022-09-10T09:08:21.273Z,3.3
2022-09-10T09:10:29.777Z,3
2022-09-10T09:12:28.899Z,3.2
2022-09-10T09:14:22.579Z,2.8
2022-09-10T09:16:25.621Z,3.1
2022-09-10T09:18:26.061Z,2.9
2022-09-10T09:22:25.157Z,2.7
2022-09-10T09:24:23.449Z,3
2022-09-10T09:28:26.395Z,3.2
2022-09-10T09:32:29.211Z,3
2022-09-10T09:34:27.896Z,3.3
2022-09-10T09:36:29.227Z,3.1
2022-09-10T09:40:26.053Z,2.8
2022-09-10T09:42:28.401Z,3.1
2022-09-10T09:46:27.251Z,3
2022-09-10T09:48:23.427Z,3.1
2022-09-10T09:50:24.736Z,2.9
2022-09-10T09:52:26.540Z,3.3
2022-09-10T09:56:59.097Z,3.1
2022-09-10T09:58:45.917Z,3.4
2022-09-10T10:00:25.777Z,3
2022-09-10T10:02:28.403Z,3.1
2022-09-10T10:04:23.770Z,3.5
2022-09-10T10:06:28.861Z,3.6
2022-09-10T10:08:25.889Z,3.2
2022-09-10T10:10:29.047Z,3.6
2022-09-10T10:12:26.619Z,3.4
2022-09-10T10:14:25.751Z,3.8
2022-09-10T10:16:27.052Z,3.4
2022-09-10T10:18:27.122Z,3.6
2022-09-10T10:20:22.335Z,3.5
2022-09-10T10:22:27.886Z,3.4
2022-09-10T10:24:25.349Z,3.3
2022-09-10T10:26:27.810Z,3.5
2022-09-10T10:28:20.605Z,4.2
2022-09-10T10:30:24.319Z,4.1
2022-09-10T10:32:29.587Z,4
2022-09-10T10:34:24.931Z,3.1
2022-09-10T10:36:27.000Z,3.2
2022-09-10T10:38:27.988Z,3.6
2022-09-10T10:40:27.116Z,3.3
2022-09-10T10:42:25.985Z,4.2
2022-09-10T10:44:23.349Z,3.5
2022-09-10T10:48:31.281Z,3.7
2022-09-10T10:52:25.609Z,3.5
2022-09-10T10:54:20.488Z,3.4
2022-09-10T10:56:22.241Z,4
2022-09-10T10:58:27.173Z,3.5
2022-09-10T11:00:24.732Z,3.7
2022-09-10T11:02:26.179Z,3.8
2022-09-10T11:04:24.614Z,3.3
2022-09-10T11:06:29.684Z,4
2022-09-10T11:08:23.925Z,3.4
2022-09-10T11:10:25.206Z,3.6
2022-09-10T11:12:28.477Z,3.4
2022-09-10T11:14:21.108Z,3.8
2022-09-10T11:16:26.355Z,3.3
2022-09-10T11:18:26.006Z,3.7
2022-09-10T11:20:37.309Z,3.5
2022-09-10T11:22:31.112Z,3.9
2022-09-10T11:24:27.869Z,3.6
2022-09-10T11:26:24.884Z,3.9
2022-09-10T11:28:25.237Z,3.7
2022-09-10T11:30:25.458Z,3.6
2022-09-10T11:32:26.771Z,4
2022-09-10T11:34:26.497Z,4.5
2022-09-10T11:36:28.102Z,4
2022-09-10T11:38:24.150Z,4.3
2022-09-10T11:40:28.342Z,3.4
2022-09-10T11:42:26.758Z,3.6
2022-09-10T11:44:23.920Z,4
2022-09-10T11:46:28.783Z,3.2
2022-09-10T11:48:24.574Z,3.7
2022-09-10T11:50:26.253Z,3.5
2022-09-10T11:52:26.322Z,3.4
2022-09-10T11:56:28.570Z,3.2
2022-09-10T11:58:27.051Z,2.9
2022-09-10T12:00:26.996Z,3.1
2022-09-10T12:02:26.623Z,3.5
2022-09-10T12:04:23.594Z,3.8
2022-09-10T12:06:27.511Z,3.9
2022-09-10T12:08:24.992Z,3.7
2022-09-10T12:12:27.867Z,3.9
2022-09-10T12:14:28.127Z,3.3
2022-09-10T12:16:28.298Z,3.6
2022-09-10T12:18:23.504Z,3.9
2022-09-10T12:20:26.173Z,4.1
2022-09-10T12:24:25.156Z,3.4
2022-09-10T12:26:28.028Z,3.8
2022-09-10T12:32:27.709Z,4
2022-09-10T12:34:26.417Z,3.8
2022-09-10T12:36:29.395Z,4.4
2022-09-10T12:38:24.152Z,4
2022-09-10T12:40:22.243Z,4.2
2022-09-10T12:42:25.111Z,3.6
2022-09-10T12:44:23.889Z,4.2
2022-09-10T12:46:20.656Z,3.9
2022-09-10T12:48:26.958Z,4.5
2022-09-10T12:50:26.311Z,4.3
2022-09-10T12:56:29.185Z,4.7
2022-09-10T12:58:28.287Z,5
2022-09-10T13:00:25.460Z,4.6
2022-09-10T13:02:28.004Z,4.8
2022-09-10T13:04:25.972Z,4.4
2022-09-10T13:06:26.557Z,4.6
2022-09-10T13:08:25.051Z,4.9
2022-09-10T13:10:27.605Z,4.4
2022-09-10T13:12:28.207Z,4.1
2022-09-10T13:14:24.025Z,5.4
2022-09-10T13:16:21.905Z,6.1
2022-09-10T13:18:25.963Z,6.4
2022-09-10T13:20:27.931Z,6.7
2022-09-10T13:22:20.802Z,6.2
2022-09-10T13:24:25.587Z,6.5
2022-09-10T13:26:25.819Z,5.9
2022-09-10T13:28:25.345Z,5.6
2022-09-10T13:30:28.609Z,5.5
2022-09-10T13:32:27.670Z,5.2
2022-09-10T13:34:23.436Z,6
2022-09-10T13:36:27.773Z,5.1
2022-09-10T13:38:23.920Z,5.5
2022-09-10T13:40:26.797Z,5.7
2022-09-10T13:42:26.876Z,5.4
2022-09-10T13:44:22.756Z,5.5
2022-09-10T13:46:29.048Z,5.1
2022-09-10T13:48:26.781Z,5.8
2022-09-10T13:50:28.254Z,7
2022-09-10T13:52:26.317Z,6.5
2022-09-10T13:54:25.760Z,7.1
2022-09-10T13:56:25.136Z,6.4
2022-09-10T13:58:22.970Z,6.5
2022-09-10T14:00:26.784Z,5.8
2022-09-10T14:02:29.704Z,6.6
2022-09-10T14:04:26.347Z,5.7
2022-09-10T14:06:28.513Z,5.2
2022-09-10T14:10:28.193Z,5.3
2022-09-10T14:12:28.189Z,5.5
2022-09-10T14:14:20.436Z,5.2
2022-09-10T14:16:30.233Z,5.7
2022-09-10T14:18:26.151Z,5.9
2022-09-10T14:20:23.450Z,5.7
2022-09-10T14:22:26.116Z,5.8
2022-09-10T14:24:26.475Z,4.8
2022-09-10T14:30:27.200Z,4.9
2022-09-10T14:32:26.843Z,4.2
2022-09-10T14:34:24.170Z,4.8
2022-09-10T14:36:25.387Z,5.2
2022-09-10T14:38:27.148Z,4.5
2022-09-10T14:40:25.520Z,4.8
2022-09-10T14:42:27.291Z,4.3
2022-09-10T14:44:22.896Z,4.9
2022-09-10T14:46:28.279Z,5.1
2022-09-10T14:48:25.571Z,4.9
2022-09-10T14:50:26.215Z,5.2
2022-09-10T14:52:28.462Z,4.9
2022-09-10T14:54:20.868Z,4.8
2022-09-10T14:56:26.928Z,4.7
2022-09-10T14:58:24.173Z,4.9
2022-09-10T15:00:27.352Z,4.8
2022-09-10T15:02:22.778Z,4.5
2022-09-10T15:04:26.139Z,4.7
2022-09-10T15:08:25.874Z,5
2022-09-10T15:10:25.366Z,4.4
2022-09-10T15:12:28.803Z,4.6
2022-09-10T15:14:25.194Z,4.3
2022-09-10T15:16:24.469Z,4.4
2022-09-10T15:18:29.387Z,4.7
2022-09-10T15:20:27.814Z,3.9
2022-09-10T15:22:34.478Z,3.7
2022-09-10T15:24:26.615Z,4.7
2022-09-10T15:26:30.525Z,4.6
2022-09-10T15:28:20.348Z,3.9
2022-09-10T15:32:25.388Z,4.4
2022-09-10T15:34:25.046Z,4.1
2022-09-10T15:36:23.607Z,4.3
2022-09-10T15:40:26.595Z,4.4
2022-09-10T15:42:27.012Z,3.8
2022-09-10T15:44:23.634Z,4.5
2022-09-10T15:48:24.093Z,4.7
2022-09-10T15:50:24.124Z,3.7
2022-09-10T15:52:24.791Z,3.9
2022-09-10T15:54:21.924Z,3.8
2022-09-10T15:56:24.615Z,4.2
2022-09-10T15:58:24.366Z,4.3
2022-09-10T16:00:29.813Z,3.8
2022-09-10T16:02:26.625Z,4.2
2022-09-10T16:04:23.422Z,4.6
2022-09-10T16:06:26.347Z,4
2022-09-10T16:08:20.360Z,4.3
2022-09-10T16:10:22.188Z,4
2022-09-10T16:12:24.698Z,3.9
2022-09-10T16:14:24.142Z,4.1
2022-09-10T16:16:28.707Z,4
2022-09-10T16:18:23.699Z,3.9
2022-09-10T16:20:21.982Z,4
2022-09-10T16:22:26.184Z,4.7
2022-09-10T16:24:20.664Z,4.9
2022-09-10T16:26:25.879Z,4.8
2022-09-10T16:30:25.053Z,5
2022-09-10T16:32:29.212Z,4.4
2022-09-10T16:34:19.957Z,4.7
2022-09-10T16:36:22.024Z,4.5
2022-09-10T16:38:28.104Z,5
2022-09-10T16:40:27.651Z,4.7
2022-09-10T16:42:26.857Z,4.3
2022-09-10T16:44:24.917Z,4.6
2022-09-10T16:46:23.886Z,4.4
2022-09-10T16:48:23.301Z,4.7
2022-09-10T16:50:28.589Z,4.5
2022-09-10T16:52:31.383Z,4.3
2022-09-10T16:54:24.911Z,4.6
2022-09-10T16:56:28.361Z,4.2
2022-09-10T16:58:27.129Z,4.4
2022-09-10T17:00:27.545Z,3.9
2022-09-10T17:02:25.851Z,4.3
2022-09-10T17:04:29.351Z,4.1
2022-09-10T17:06:24.937Z,3.7
2022-09-10T17:08:24.496Z,4.9
2022-09-10T17:10:28.107Z,4
2022-09-10T17:12:23.607Z,3.8
2022-09-10T17:14:23.513Z,3.6
2022-09-10T17:16:27.075Z,3.7
2022-09-10T17:18:24.741Z,3.5
2022-09-10T17:20:25.106Z,3.9
2022-09-10T17:22:28.098Z,3.6
2022-09-10T17:24:25.763Z,3.9
2022-09-10T17:28:20.716Z,4
2022-09-10T17:30:26.088Z,3.4
2022-09-10T17:32:30.104Z,4.1
2022-09-10T17:36:27.255Z,4.8
2022-09-10T17:38:23.675Z,4.3
2022-09-10T17:40:27.385Z,4.1
2022-09-10T17:42:29.787Z,4.3
2022-09-10T17:44:27.902Z,4
2022-09-10T17:46:25.371Z,4.7
2022-09-10T17:48:27.990Z,4.1
2022-09-10T17:50:27.334Z,3.9
2022-09-10T17:52:35.364Z,4.8
2022-09-10T17:54:26.224Z,4
2022-09-10T17:56:28.616Z,4.7
2022-09-10T17:58:21.202Z,4.4
2022-09-10T18:00:28.734Z,4
2022-09-10T18:02:34.398Z,4.4
2022-09-10T18:04:20.230Z,4.1
2022-09-10T18:06:33.271Z,4.3
2022-09-10T18:08:26.158Z,4.9
2022-09-10T18:10:25.459Z,4.5
2022-09-10T18:12:24.845Z,5.1
2022-09-10T18:14:23.509Z,4.3
2022-09-10T18:16:28.947Z,4.5
2022-09-10T18:18:29.008Z,4.1
2022-09-10T18:20:22.503Z,4.5
2022-09-10T18:22:27.739Z,3.8
2022-09-10T18:24:26.005Z,4.1
2022-09-10T18:26:28.378Z,4.6
2022-09-10T18:28:33.837Z,5.3
2022-09-10T18:30:25.574Z,4.1
2022-09-10T18:32:26.299Z,4.2
2022-09-10T18:38:27.297Z,4.6
2022-09-10T18:40:27.812Z,4.3
2022-09-10T18:42:25.845Z,4.6
2022-09-10T18:44:24.528Z,4.7
2022-09-10T18:46:29.531Z,5.1
2022-09-10T18:50:27.896Z,4.8
2022-09-10T18:52:25.165Z,4.6
2022-09-10T18:54:23.198Z,4.9
2022-09-10T18:56:28.629Z,4.8
2022-09-10T19:00:29.449Z,4.7
2022-09-10T19:04:26.018Z,4.8
2022-09-10T19:06:25.193Z,5.1
2022-09-10T19:08:27.079Z,4.7
2022-09-10T19:10:27.506Z,5.3
2022-09-10T19:12:27.926Z,4.9
2022-09-10T19:14:20.807Z,5.1
2022-09-10T19:16:24.377Z,4.6
2022-09-10T19:18:21.626Z,5.2
2022-09-10T19:20:27.655Z,4.4
2022-09-10T19:22:32.749Z,4.8
2022-09-10T19:26:24.373Z,5.1
2022-09-10T19:28:27.093Z,4.7
2022-09-10T19:30:24.167Z,4.9
2022-09-10T19:32:23.796Z,4.2
2022-09-10T19:34:23.279Z,4.7
2022-09-10T19:36:23.936Z,5.1
2022-09-10T19:38:40.971Z,5.3
2022-09-10T19:40:24.804Z,5.4
2022-09-10T19:42:28.862Z,5.1
2022-09-10T19:44:24.404Z,5.6
2022-09-10T19:46:25.881Z,5.9
2022-09-10T19:48:23.531Z,5.5
2022-09-10T19:50:28.186Z,5.1
2022-09-10T19:52:28.315Z,5.5
2022-09-10T19:56:26.202Z,6.1
2022-09-10T19:58:26.058Z,5.3
2022-09-10T20:00:50.947Z,6.5
2022-09-10T20:04:23.089Z,5.8
2022-09-10T20:06:26.540Z,5.9
2022-09-10T20:08:26.298Z,6.1
2022-09-10T20:10:20.057Z,6.4
2022-09-10T20:12:24.505Z,7.1
2022-09-10T20:14:25.258Z,6
2022-09-10T20:16:28.829Z,5.9
2022-09-10T20:18:23.644Z,5.8
2022-09-10T20:20:30.014Z,5.7
2022-09-10T20:22:28.389Z,6.8
2022-09-10T20:24:23.045Z,5.9
2022-09-10T20:26:26.811Z,5.3
2022-09-10T20:28:23.888Z,6.6
2022-09-10T20:30:29.139Z,5.6
2022-09-10T20:32:28.662Z,6.1
2022-09-10T20:34:24.965Z,5.3
2022-09-10T20:36:24.696Z,5.5
2022-09-10T20:38:23.249Z,5.7
2022-09-10T20:42:27.126Z,5.6
2022-09-10T20:44:25.913Z,6.2
2022-09-10T20:46:25.843Z,5.7
2022-09-10T20:48:21.779Z,5.6
2022-09-10T20:50:25.964Z,5.9
2022-09-10T20:52:28.345Z,6.2
2022-09-10T20:54:22.075Z,6.1
2022-09-10T20:56:25.514Z,5.9
2022-09-10T20:58:23.003Z,5
2022-09-10T21:00:24.263Z,5.2
2022-09-10T21:02:20.208Z,6
2022-09-10T21:04:25.514Z,5.9
2022-09-10T21:06:24.928Z,5.6
2022-09-10T21:08:26.218Z,5.2
2022-09-10T21:10:26.176Z,5.7
2022-09-10T21:14:23.223Z,5.3
2022-09-10T21:16:25.170Z,6.1
2022-09-10T21:18:23.596Z,6.3
2022-09-10T21:20:25.368Z,6.4
2022-09-10T21:22:24.611Z,6
2022-09-10T21:24:23.370Z,6.4
2022-09-10T21:26:27.619Z,5.5
2022-09-10T21:28:23.451Z,6.6
2022-09-10T21:30:29.257Z,6.1
2022-09-10T21:32:25.025Z,5.5
2022-09-10T21:34:25.352Z,5.6
2022-09-10T21:38:22.461Z,5.8
2022-09-10T21:40:26.715Z,6.2
2022-09-10T21:42:23.995Z,6.3
2022-09-10T21:44:23.921Z,6.1
2022-09-10T21:46:29.914Z,6.3
2022-09-10T21:50:28.406Z,6.5
2022-09-10T21:52:26.336Z,6.2
2022-09-10T21:54:25.503Z,6.1
2022-09-10T21:56:26.394Z,5.9
2022-09-10T21:58:25.648Z,6.3
2022-09-10T22:02:30.197Z,7.3
2022-09-10T22:04:27.312Z,7.1
2022-09-10T22:06:23.394Z,7.4
2022-09-10T22:08:24.593Z,6.8
2022-09-10T22:10:26.196Z,7
2022-09-10T22:12:25.764Z,7.9
2022-09-10T22:14:24.760Z,7
2022-09-10T22:16:24.838Z,7.5
2022-09-10T22:18:26.783Z,7.8
2022-09-10T22:20:26.339Z,8
2022-09-10T22:22:28.671Z,7.8
2022-09-10T22:24:21.994Z,8.1
2022-09-10T22:26:27.219Z,7.7
2022-09-10T22:28:26.229Z,7.6
2022-09-10T22:30:28.125Z,7.9
2022-09-10T22:32:28.746Z,8
2022-09-10T22:34:23.434Z,7.1
2022-09-10T22:36:27.566Z,9.1
2022-09-10T22:38:25.709Z,8.1
2022-09-10T22:40:29.944Z,8.9
2022-09-10T22:44:26.378Z,8.1
2022-09-10T22:46:23.711Z,8.8
2022-09-10T22:48:26.187Z,8.4
2022-09-10T22:50:26.842Z,8.3
2022-09-10T22:52:28.624Z,8.8
2022-09-10T22:54:25.526Z,8.4
2022-09-10T22:56:24.223Z,9.9
2022-09-10T22:58:28.756Z,9.5
2022-09-10T23:00:24.526Z,9.6
2022-09-10T23:02:24.695Z,9.1
2022-09-10T23:04:24.284Z,10.4
2022-09-10T23:06:27.493Z,10.8
2022-09-10T23:08:19.644Z,10.3
2022-09-10T23:10:25.738Z,11.5
2022-09-10T23:14:23.508Z,10.2
2022-09-10T23:16:24.770Z,10.1
2022-09-10T23:18:26.030Z,11.4
2022-09-10T23:20:25.561Z,10.8
2022-09-10T23:22:30.209Z,9
2022-09-10T23:24:22.739Z,10.7
2022-09-10T23:26:28.119Z,11
2022-09-10T23:28:22.919Z,10.6
2022-09-10T23:30:25.897Z,10
2022-09-10T23:32:28.618Z,10.5
2022-09-10T23:34:23.248Z,11.9
2022-09-10T23:36:28.315Z,11.3
2022-09-10T23:38:25.745Z,11.2
2022-09-10T23:40:35.848Z,11.9
2022-09-10T23:42:25.889Z,11.6
2022-09-10T23:44:26.919Z,11.3
2022-09-10T23:46:28.382Z,11.5
2022-09-10T23:48:25.863Z,12.5
2022-09-10T23:50:25.918Z,11.5
2022-09-10T23:52:28.933Z,10.6
2022-09-10T23:54:26.702Z,12.5
2022-09-10T23:56:23.822Z,11
2022-09-10T23:58:25.918Z,12.8
